createdAt,value
2023-01-19T00:00:41.963Z,17.50
2023-01-19T00:03:16.376Z,19.50
2023-01-19T00:05:44.407Z,17.70
2023-01-19T00:08:17.777Z,17.40
2023-01-19T00:10:47.251Z,17.50
2023-01-19T00:13:15.216Z,18.20
2023-01-19T00:15:42.910Z,17.80
2023-01-19T00:18:11.151Z,18.10
2023-01-19T00:20:39.891Z,18.90
2023-01-19T00:23:10.522Z,18.50
2023-01-19T00:25:42.815Z,19.30
2023-01-19T00:28:11.386Z,18.30
2023-01-19T00:30:39.563Z,17.60
2023-01-19T00:33:07.622Z,19.40
2023-01-19T00:35:35.896Z,17.90
2023-01-19T00:38:03.686Z,18.70
2023-01-19T00:40:31.106Z,19.30
2023-01-19T00:42:59.005Z,19.40
2023-01-19T00:45:26.686Z,18.30
2023-01-19T00:47:57.478Z,18.40
2023-01-19T00:50:26.181Z,18.50
2023-01-19T00:52:54.763Z,16.80
2023-01-19T00:55:22.730Z,18.50
2023-01-19T00:57:50.602Z,18.70
2023-01-19T01:00:22.029Z,18.20
2023-01-19T01:02:50.345Z,19.20
2023-01-19T01:05:17.974Z,18.40
2023-01-19T01:07:45.733Z,16.80
2023-01-19T01:10:24.221Z,18.60
2023-01-19T01:12:53.608Z,17.90
2023-01-19T01:15:26.515Z,15.70
2023-01-19T01:17:53.892Z,16.80
2023-01-19T01:20:23.027Z,17.50
2023-01-19T01:22:51.582Z,17.50
2023-01-19T01:25:22.762Z,18.10
2023-01-19T01:27:50.305Z,19.00
2023-01-19T01:30:17.532Z,18.20
2023-01-19T01:32:44.680Z,18.70
2023-01-19T01:35:12.545Z,17.80
2023-01-19T01:37:39.689Z,18.10
2023-01-19T01:40:07.562Z,17.50
2023-01-19T01:42:35.630Z,17.20
2023-01-19T01:45:06.267Z,17.70
2023-01-19T01:47:44.599Z,18.40
2023-01-19T01:50:18.803Z,16.90
2023-01-19T01:53:07.551Z,17.10
2023-01-19T01:55:41.687Z,18.30
2023-01-19T01:58:09.206Z,18.80
2023-01-19T02:00:55.313Z,17.10
2023-01-19T02:03:23.544Z,16.40
2023-01-19T02:05:50.934Z,16.60
2023-01-19T02:08:38.362Z,17.10
2023-01-19T02:11:25.021Z,16.40
2023-01-19T02:13:52.544Z,17.00
2023-01-19T02:16:20.013Z,16.70
2023-01-19T02:18:47.748Z,16.10
2023-01-19T02:21:19.280Z,16.60
2023-01-19T02:26:20.865Z,16.20
2023-01-19T02:28:51.244Z,16.00
2023-01-19T02:31:18.745Z,16.50
2023-01-19T02:33:46.507Z,16.40
2023-01-19T02:36:15.642Z,16.70
2023-01-19T02:38:43.675Z,16.40
2023-01-19T02:41:12.738Z,17.30
2023-01-19T02:43:40.435Z,15.30
2023-01-19T02:46:08.794Z,15.90
2023-01-19T02:48:36.589Z,16.80
2023-01-19T02:51:12.327Z,16.10
2023-01-19T02:53:53.813Z,15.60
2023-01-19T02:56:40.827Z,15.80
2023-01-19T02:59:26.919Z,16.00
2023-01-19T03:02:18.029Z,16.10
2023-01-19T03:05:11.196Z,16.70
2023-01-19T03:08:03.707Z,15.20
2023-01-19T03:10:34.773Z,16.10
2023-01-19T03:13:10.946Z,15.00
2023-01-19T03:15:59.563Z,15.80
2023-01-19T03:18:28.477Z,16.60
2023-01-19T03:20:57.180Z,15.40
2023-01-19T03:23:26.524Z,16.10
2023-01-19T03:25:56.836Z,16.20
2023-01-19T03:28:26.894Z,15.40
2023-01-19T03:31:00.980Z,16.10
2023-01-19T03:33:37.697Z,15.90
2023-01-19T03:36:27.782Z,14.70
2023-01-19T03:38:55.438Z,14.40
2023-01-19T03:41:23.168Z,14.00
2023-01-19T03:43:51.587Z,15.80
2023-01-19T03:46:19.539Z,14.00
2023-01-19T03:48:47.316Z,15.20
2023-01-19T03:51:14.977Z,14.80
2023-01-19T03:53:42.536Z,14.80
2023-01-19T03:56:18.389Z,14.50
2023-01-19T03:58:46.323Z,14.50
2023-01-19T04:01:15.267Z,14.70
2023-01-19T08:12:44.633Z,10.60
2023-01-19T08:15:12.814Z,9.90
2023-01-19T08:17:40.790Z,9.50
2023-01-19T08:20:09.647Z,10.40
2023-01-19T08:22:47.876Z,9.40
2023-01-19T08:25:27.928Z,10.80
2023-01-19T08:27:57.034Z,9.10
2023-01-19T08:30:31.460Z,9.40
2023-01-19T08:33:04.591Z,10.90
2023-01-19T08:36:08.765Z,9.80
2023-01-19T08:38:36.821Z,8.80
2023-01-19T08:41:04.699Z,9.80
2023-01-19T08:43:34.042Z,9.70
2023-01-19T08:46:03.988Z,9.40
2023-01-19T08:48:31.866Z,9.60
2023-01-19T08:51:02.498Z,11.10
2023-01-19T08:53:30.156Z,9.10
2023-01-19T08:56:00.144Z,10.50
2023-01-19T08:58:27.735Z,9.60
2023-01-19T09:01:24.494Z,9.90
2023-01-19T09:04:30.551Z,9.80
2023-01-19T09:06:58.614Z,8.60
2023-01-19T09:09:26.579Z,9.50
2023-01-19T09:11:54.942Z,9.10
2023-01-19T09:14:22.625Z,9.00
2023-01-19T09:16:52.672Z,9.40
2023-01-19T09:19:20.193Z,8.90
2023-01-19T09:21:47.959Z,8.80
2023-01-19T09:24:15.451Z,10.60
2023-01-19T09:26:43.359Z,10.20
2023-01-19T09:29:11.154Z,9.00
2023-01-19T09:31:40.556Z,9.30
2023-01-19T09:34:08.323Z,9.70
2023-01-19T09:36:38.679Z,10.40
2023-01-19T09:39:07.677Z,9.70
2023-01-19T09:41:37.274Z,9.70
2023-01-19T09:44:05.022Z,10.20
2023-01-19T09:46:42.301Z,9.80
2023-01-19T09:49:16.829Z,9.60
2023-01-19T09:51:46.932Z,10.60
2023-01-19T09:54:45.653Z,10.20
2023-01-19T09:57:13.894Z,9.70
2023-01-19T09:59:43.951Z,8.90
2023-01-19T10:02:18.768Z,9.50
2023-01-19T10:04:52.586Z,10.40
2023-01-19T10:07:45.497Z,9.50
2023-01-19T10:10:20.849Z,8.80
2023-01-19T10:13:32.327Z,9.10
2023-01-19T10:16:42.811Z,9.70
2023-01-19T10:19:46.426Z,10.10
2023-01-19T10:22:24.821Z,9.30
2023-01-19T10:24:57.491Z,9.80
2023-01-19T10:27:29.614Z,10.10
2023-01-19T10:29:57.947Z,9.60
2023-01-19T10:32:27.351Z,9.30
2023-01-19T10:34:55.302Z,9.50
2023-01-19T10:37:23.075Z,9.90
2023-01-19T10:40:09.804Z,8.30
2023-01-19T10:42:40.161Z,8.20
2023-01-19T10:45:21.500Z,8.70
2023-01-19T10:47:49.481Z,7.70
2023-01-19T10:50:33.810Z,8.50
2023-01-19T10:53:04.267Z,8.30
2023-01-19T10:55:35.021Z,7.00
2023-01-19T10:58:04.163Z,8.60
2023-01-19T11:00:43.123Z,7.00
2023-01-19T11:03:31.978Z,7.30
2023-01-19T11:06:15.885Z,7.50
2023-01-19T11:08:47.917Z,6.90
2023-01-19T11:11:16.398Z,5.70
2023-01-19T11:13:44.707Z,6.70
2023-01-19T11:16:29.677Z,6.80
2023-01-19T11:19:18.941Z,6.50
2023-01-19T11:21:46.602Z,6.40
2023-01-19T11:24:16.688Z,7.70
2023-01-19T11:26:51.501Z,6.30
2023-01-19T11:29:26.281Z,5.70
2023-01-19T11:31:54.703Z,5.90
2023-01-19T11:34:23.676Z,7.40
2023-01-19T11:37:05.644Z,7.20
2023-01-19T11:39:35.714Z,6.20
2023-01-19T11:42:04.246Z,6.00
2023-01-19T11:44:37.450Z,7.00
2023-01-19T11:47:06.805Z,6.70
2023-01-19T11:49:43.824Z,6.00
2023-01-19T11:52:24.381Z,6.20
2023-01-19T11:55:00.547Z,6.60
2023-01-19T11:57:27.995Z,6.10
2023-01-19T11:59:55.693Z,6.70
2023-01-19T12:02:26.805Z,7.40
2023-01-19T12:07:30.606Z,6.30
2023-01-19T12:10:32.292Z,6.10
2023-01-19T12:13:00.264Z,7.20
2023-01-19T12:15:39.840Z,6.80
2023-01-19T12:18:09.182Z,6.60
2023-01-19T12:20:45.289Z,5.90
2023-01-19T12:23:31.654Z,6.20
2023-01-19T12:26:05.169Z,5.70
2023-01-19T12:28:34.458Z,6.10
2023-01-19T12:31:02.140Z,6.30
2023-01-19T12:33:34.910Z,6.10
2023-01-19T12:36:35.742Z,5.60
2023-01-19T12:39:20.619Z,6.40
2023-01-19T12:41:48.976Z,5.50
2023-01-19T12:44:20.954Z,5.50
2023-01-19T12:46:54.891Z,5.50
2023-01-19T12:49:29.387Z,6.20
2023-01-19T12:52:23.549Z,5.60
2023-01-19T12:54:56.958Z,6.20
2023-01-19T12:57:33.013Z,5.80
2023-01-19T13:00:24.177Z,6.10
2023-01-19T14:14:30.096Z,9.10
2023-01-19T14:16:58.054Z,8.40
2023-01-19T14:19:26.105Z,8.60
2023-01-19T14:22:01.472Z,8.30
2023-01-19T14:24:37.473Z,8.80
2023-01-19T14:27:24.725Z,9.30
2023-01-19T14:29:54.235Z,9.00
2023-01-19T14:32:25.175Z,8.90
2023-01-19T14:35:12.889Z,9.00
2023-01-19T14:37:48.133Z,9.10
2023-01-19T14:40:18.807Z,9.50
2023-01-19T14:42:52.766Z,10.90
2023-01-19T14:45:40.915Z,8.90
2023-01-19T14:48:19.117Z,9.10
2023-01-19T14:51:01.930Z,9.00
2023-01-19T14:53:37.158Z,9.30
2023-01-19T14:56:05.992Z,9.30
2023-01-19T14:58:34.408Z,10.00
2023-01-19T15:01:02.385Z,10.10
2023-01-19T15:03:44.395Z,9.60
2023-01-19T15:06:21.802Z,9.70
2023-01-19T15:08:50.541Z,10.70
2023-01-19T15:11:27.964Z,10.90
2023-01-19T15:13:55.953Z,10.20
2023-01-19T15:16:25.245Z,10.20
2023-01-19T15:18:53.020Z,10.70
2023-01-19T15:21:23.888Z,11.20
2023-01-19T15:23:53.789Z,10.40
2023-01-19T15:26:23.912Z,11.50
2023-01-19T15:28:51.742Z,10.70
2023-01-19T15:31:21.372Z,11.80
2023-01-19T15:33:49.146Z,11.60
2023-01-19T15:36:19.472Z,12.60
2023-01-19T15:38:47.533Z,12.40
2023-01-19T15:41:30.218Z,11.40
2023-01-19T15:43:58.140Z,12.60
2023-01-19T15:46:26.275Z,12.20
2023-01-19T15:48:53.902Z,12.30
2023-01-19T15:51:23.319Z,12.00
2023-01-19T15:53:51.308Z,12.80
2023-01-19T15:56:25.148Z,11.50
2023-01-19T15:58:53.272Z,11.90
2023-01-19T16:01:31.782Z,12.00
2023-01-19T16:04:01.463Z,11.80
2023-01-19T16:06:30.083Z,14.00
2023-01-19T16:09:01.759Z,12.40
2023-01-19T16:11:33.627Z,13.50
2023-01-19T16:16:29.794Z,12.80
2023-01-19T16:18:58.068Z,13.80
2023-01-19T16:21:25.796Z,14.30
2023-01-19T16:23:54.174Z,13.40
2023-01-19T16:26:25.000Z,13.40
2023-01-19T16:28:52.753Z,14.20
2023-01-19T16:31:20.536Z,14.10
2023-01-19T16:33:48.485Z,14.60
2023-01-19T16:36:24.263Z,13.90
2023-01-19T16:38:52.307Z,14.40
2023-01-19T16:41:20.486Z,14.90
2023-01-19T16:43:53.298Z,13.40
2023-01-19T16:46:32.857Z,13.90
2023-01-19T16:49:03.351Z,14.20
2023-01-19T16:51:31.400Z,14.70
2023-01-19T16:54:00.119Z,14.50
2023-01-19T16:56:28.066Z,13.50
2023-01-19T16:58:56.652Z,14.40
2023-01-19T17:01:25.597Z,15.10
2023-01-19T17:03:53.561Z,15.30
2023-01-19T17:06:24.867Z,14.50
2023-01-19T17:08:53.051Z,15.60
2023-01-19T17:11:22.746Z,15.80
2023-01-19T17:13:53.150Z,13.90
2023-01-19T17:16:21.687Z,15.00
2023-01-19T17:18:49.601Z,15.30
2023-01-19T17:21:18.391Z,16.20
2023-01-19T17:23:47.901Z,16.00
2023-01-19T17:26:16.083Z,15.80
2023-01-19T17:28:44.346Z,17.10
2023-01-19T17:31:13.978Z,15.30
2023-01-19T17:33:44.408Z,16.30
2023-01-19T17:36:17.469Z,15.90
2023-01-19T17:38:45.596Z,16.30
2023-01-19T17:41:14.596Z,15.00
2023-01-19T17:43:42.705Z,17.50
2023-01-19T17:46:10.837Z,15.10
2023-01-19T17:48:38.845Z,15.10
2023-01-19T17:51:08.965Z,15.90
2023-01-19T17:53:38.540Z,16.40
2023-01-19T17:56:07.844Z,15.70
2023-01-19T17:58:35.564Z,15.80
2023-01-19T18:01:14.226Z,16.40
2023-01-19T18:03:42.352Z,15.40
2023-01-19T18:06:10.597Z,15.40
2023-01-19T18:08:39.834Z,16.60
2023-01-19T18:11:07.650Z,16.60
2023-01-19T18:13:35.841Z,15.80
2023-01-19T18:16:05.802Z,13.90
2023-01-19T18:18:34.545Z,15.00
2023-01-19T18:21:04.260Z,16.60
2023-01-19T18:23:33.883Z,16.00
2023-01-19T18:26:08.826Z,16.50
2023-01-19T18:28:36.710Z,15.30
2023-01-19T18:31:10.013Z,15.40
2023-01-19T18:33:40.841Z,16.10
2023-01-19T18:36:09.466Z,16.50
2023-01-19T18:38:38.138Z,14.60
2023-01-19T18:41:08.517Z,16.40
2023-01-19T18:43:36.506Z,18.00
2023-01-19T18:46:04.515Z,17.50
2023-01-19T18:48:32.586Z,16.80
2023-01-19T18:51:05.066Z,16.20
2023-01-19T18:53:32.733Z,17.70
2023-01-19T18:56:02.258Z,18.00
2023-01-19T18:58:31.803Z,16.00
2023-01-19T19:01:00.303Z,16.40
2023-01-19T19:03:28.385Z,16.00
2023-01-19T19:05:57.521Z,16.60
2023-01-19T19:08:25.414Z,17.60
2023-01-19T19:10:53.415Z,17.70
2023-01-19T19:13:22.404Z,16.10
2023-01-19T19:15:52.774Z,16.90
2023-01-19T19:18:20.810Z,17.40
2023-01-19T19:20:48.817Z,16.10
2023-01-19T19:23:16.927Z,18.00
2023-01-19T19:25:44.741Z,16.90
2023-01-19T19:28:12.677Z,18.50
2023-01-19T19:30:42.008Z,19.70
2023-01-19T19:33:09.848Z,17.90
2023-01-19T19:35:37.653Z,19.70
2023-01-19T19:38:05.582Z,19.40
2023-01-19T19:40:33.452Z,18.80
2023-01-19T19:43:01.425Z,18.00
2023-01-19T19:45:29.286Z,18.90
2023-01-19T19:47:57.876Z,19.60
2023-01-19T19:50:25.732Z,18.80
2023-01-19T19:52:54.051Z,19.20
2023-01-19T19:55:22.369Z,18.40
2023-01-19T19:57:50.979Z,21.30
2023-01-19T20:00:19.621Z,20.50
2023-01-19T20:02:47.504Z,20.40
2023-01-19T20:05:15.878Z,20.20
2023-01-19T20:07:47.587Z,18.60
2023-01-19T20:10:15.533Z,20.60
2023-01-19T20:12:43.483Z,20.40
2023-01-19T20:15:12.827Z,21.00
2023-01-19T20:17:40.929Z,22.00
2023-01-19T20:20:10.360Z,19.80
2023-01-19T20:22:38.227Z,18.90
2023-01-19T20:25:07.533Z,20.00
2023-01-19T20:27:35.912Z,20.10
2023-01-19T20:30:04.266Z,20.20
2023-01-19T20:32:32.562Z,21.10
2023-01-19T20:35:01.146Z,21.10
2023-01-19T20:37:28.891Z,20.30
2023-01-19T20:39:58.496Z,19.80
2023-01-19T20:42:26.793Z,20.90
2023-01-19T20:44:55.989Z,21.90
2023-01-19T20:47:24.879Z,19.40
2023-01-19T20:49:52.963Z,22.70
2023-01-19T20:52:23.379Z,22.00
2023-01-19T20:54:52.571Z,20.40
2023-01-19T20:57:20.372Z,20.40
2023-01-19T20:59:48.204Z,21.00
2023-01-19T21:02:17.984Z,21.90
2023-01-19T21:04:45.575Z,20.20
2023-01-19T21:07:13.345Z,20.40
2023-01-19T21:09:41.045Z,21.60
2023-01-19T21:12:09.992Z,21.80
2023-01-19T21:14:37.963Z,21.40
2023-01-19T21:17:05.628Z,22.10
2023-01-19T21:19:33.513Z,21.70
2023-01-19T21:22:02.110Z,23.30
2023-01-19T21:24:30.149Z,21.20
2023-01-19T21:26:57.803Z,24.00
2023-01-19T21:29:25.516Z,23.50
2023-01-19T21:31:53.678Z,22.90
2023-01-19T21:34:21.722Z,23.70
2023-01-19T21:36:50.101Z,22.30
2023-01-19T21:39:18.073Z,23.10
2023-01-19T21:41:46.146Z,23.00
2023-01-19T21:44:14.817Z,22.70
2023-01-19T21:46:42.885Z,22.80
2023-01-19T21:49:16.046Z,23.90
2023-01-19T21:51:45.138Z,22.90
2023-01-19T21:54:13.242Z,24.30
2023-01-19T21:56:43.790Z,23.30
2023-01-19T21:59:13.388Z,23.70
2023-01-19T22:01:41.768Z,24.00
2023-01-19T22:04:09.528Z,23.30
2023-01-19T22:06:37.178Z,23.30
2023-01-19T22:09:05.781Z,21.60
2023-01-19T22:11:33.197Z,22.50
2023-01-19T22:14:00.779Z,24.80
2023-01-19T22:16:29.166Z,24.40
2023-01-19T22:18:59.734Z,22.80
2023-01-19T22:21:32.927Z,24.10
2023-01-19T22:24:01.406Z,22.10
2023-01-19T22:26:30.352Z,21.70
2023-01-19T22:28:59.695Z,21.80
2023-01-19T22:31:28.399Z,23.30
2023-01-19T22:33:56.631Z,22.30
2023-01-19T22:36:26.224Z,22.60
2023-01-19T22:38:54.016Z,22.10
2023-01-19T22:41:26.587Z,23.00
2023-01-19T22:43:56.575Z,21.70
2023-01-19T22:46:25.652Z,21.40
2023-01-19T22:48:53.483Z,21.80
2023-01-19T22:51:22.833Z,20.90
2023-01-19T22:53:50.704Z,21.90
2023-01-19T22:56:23.178Z,22.20
2023-01-19T22:58:51.253Z,20.80
2023-01-19T23:01:26.815Z,21.30
2023-01-19T23:03:54.914Z,21.10
2023-01-19T23:06:24.118Z,21.10
2023-01-19T23:08:51.831Z,21.70
2023-01-19T23:11:21.327Z,20.60
2023-01-19T23:13:49.205Z,21.60
2023-01-19T23:16:16.859Z,22.20
2023-01-19T23:18:44.722Z,19.70
2023-01-19T23:21:14.018Z,21.10
2023-01-19T23:23:41.994Z,21.90
2023-01-19T23:26:19.900Z,20.00
2023-01-19T23:28:47.788Z,20.10
2023-01-19T23:31:22.600Z,21.80
2023-01-19T23:33:51.478Z,20.70
2023-01-19T23:36:19.475Z,20.60
2023-01-19T23:38:51.313Z,23.60
2023-01-19T23:41:20.402Z,22.50
2023-01-19T23:43:48.117Z,24.00
2023-01-19T23:46:16.359Z,24.10
2023-01-19T23:48:44.921Z,21.30
2023-01-19T23:51:39.434Z,21.90
2023-01-19T23:54:06.923Z,20.10
2023-01-19T23:56:35.780Z,22.50
2023-01-19T23:59:10.983Z,23.00
